sensor_id;sensor_type;location;lat;lon;timestamp;temperature;humidity
49379;DHT22;35254;47.990;-1.608;2023-02-24T00:00:05;18.90;49.80
49379;DHT22;35254;47.990;-1.608;2023-02-24T00:02:50;18.90;49.70
49379;DHT22;35254;47.990;-1.608;2023-02-24T00:05:17;18.90;49.80
49379;DHT22;35254;47.990;-1.608;2023-02-24T00:07:43;18.90;49.80
49379;DHT22;35254;47.990;-1.608;2023-02-24T00:10:10;18.90;49.70
49379;DHT22;35254;47.990;-1.608;2023-02-24T00:12:35;18.90;49.80
49379;DHT22;35254;47.990;-1.608;2023-02-24T00:15:01;18.90;49.70
49379;DHT22;35254;47.990;-1.608;2023-02-24T00:17:27;18.90;49.70
49379;DHT22;35254;47.990;-1.608;2023-02-24T00:19:55;18.90;49.70
49379;DHT22;35254;47.990;-1.608;2023-02-24T00:22:21;18.90;49.80
49379;DHT22;35254;47.990;-1.608;2023-02-24T00:24:47;18.80;49.80
49379;DHT22;35254;47.990;-1.608;2023-02-24T00:27:13;18.90;49.70
49379;DHT22;35254;47.990;-1.608;2023-02-24T00:29:39;18.90;49.60
49379;DHT22;35254;47.990;-1.608;2023-02-24T00:32:06;18.90;49.70
49379;DHT22;35254;47.990;-1.608;2023-02-24T00:34:37;18.90;49.80
49379;DHT22;35254;47.990;-1.608;2023-02-24T00:37:03;18.90;49.70
49379;DHT22;35254;47.990;-1.608;2023-02-24T00:39:31;18.80;49.70
49379;DHT22;35254;47.990;-1.608;2023-02-24T00:42:00;18.90;49.70
49379;DHT22;35254;47.990;-1.608;2023-02-24T00:44:34;18.90;49.70
49379;DHT22;35254;47.990;-1.608;2023-02-24T00:47:02;18.80;49.70
49379;DHT22;35254;47.990;-1.608;2023-02-24T00:49:30;18.90;49.70
49379;DHT22;35254;47.990;-1.608;2023-02-24T00:51:56;18.90;49.60
49379;DHT22;35254;47.990;-1.608;2023-02-24T00:54:23;18.80;49.70
49379;DHT22;35254;47.990;-1.608;2023-02-24T00:56:53;18.90;49.60
49379;DHT22;35254;47.990;-1.608;2023-02-24T00:59:19;18.80;49.60
49379;DHT22;35254;47.990;-1.608;2023-02-24T01:01:46;18.80;49.60
49379;DHT22;35254;47.990;-1.608;2023-02-24T01:04:14;18.80;49.60
49379;DHT22;35254;47.990;-1.608;2023-02-24T01:06:43;18.80;49.50
49379;DHT22;35254;47.990;-1.608;2023-02-24T01:09:14;18.90;49.50
49379;DHT22;35254;47.990;-1.608;2023-02-24T01:11:42;18.80;49.60
49379;DHT22;35254;47.990;-1.608;2023-02-24T01:14:47;18.80;49.70
49379;DHT22;35254;47.990;-1.608;2023-02-24T01:17:14;18.80;49.70
49379;DHT22;35254;47.990;-1.608;2023-02-24T01:19:40;18.80;49.70
49379;DHT22;35254;47.990;-1.608;2023-02-24T01:22:08;18.80;49.70
49379;DHT22;35254;47.990;-1.608;2023-02-24T01:24:38;18.90;49.70
49379;DHT22;35254;47.990;-1.608;2023-02-24T01:27:06;18.90;49.50
49379;DHT22;35254;47.990;-1.608;2023-02-24T01:29:32;18.90;49.60
49379;DHT22;35254;47.990;-1.608;2023-02-24T01:31:59;18.80;49.50
49379;DHT22;35254;47.990;-1.608;2023-02-24T01:34:27;18.90;49.60
49379;DHT22;35254;47.990;-1.608;2023-02-24T01:36:53;18.80;49.50
49379;DHT22;35254;47.990;-1.608;2023-02-24T01:39:19;18.80;49.50
49379;DHT22;35254;47.990;-1.608;2023-02-24T01:41:47;18.80;49.50
49379;DHT22;35254;47.990;-1.608;2023-02-24T01:46:43;18.80;49.50
49379;DHT22;35254;47.990;-1.608;2023-02-24T01:49:14;18.80;49.50
49379;DHT22;35254;47.990;-1.608;2023-02-24T01:51:57;18.80;49.50
49379;DHT22;35254;47.990;-1.608;2023-02-24T01:54:34;18.80;49.40
49379;DHT22;35254;47.990;-1.608;2023-02-24T01:57:00;18.80;49.40
49379;DHT22;35254;47.990;-1.608;2023-02-24T01:59:30;18.80;49.40
49379;DHT22;35254;47.990;-1.608;2023-02-24T02:01:58;18.80;49.40
49379;DHT22;35254;47.990;-1.608;2023-02-24T02:07:17;18.80;49.30
49379;DHT22;35254;47.990;-1.608;2023-02-24T02:09:46;18.80;49.30
49379;DHT22;35254;47.990;-1.608;2023-02-24T02:12:12;18.80;49.30
49379;DHT22;35254;47.990;-1.608;2023-02-24T02:14:42;18.90;49.30
49379;DHT22;35254;47.990;-1.608;2023-02-24T02:28:08;18.80;49.20
49379;DHT22;35254;47.990;-1.608;2023-02-24T02:33:44;18.80;49.30
49379;DHT22;35254;47.990;-1.608;2023-02-24T02:36:37;18.70;49.20
49379;DHT22;35254;47.990;-1.608;2023-02-24T02:39:19;18.70;49.20
49379;DHT22;35254;47.990;-1.608;2023-02-24T02:42:07;18.80;49.10
49379;DHT22;35254;47.990;-1.608;2023-02-24T02:44:42;18.70;49.20
49379;DHT22;35254;47.990;-1.608;2023-02-24T02:48:09;18.70;49.10
49379;DHT22;35254;47.990;-1.608;2023-02-24T02:52:50;18.80;49.10
49379;DHT22;35254;47.990;-1.608;2023-02-24T02:57:59;18.70;49.00
49379;DHT22;35254;47.990;-1.608;2023-02-24T03:00:31;18.80;49.00
49379;DHT22;35254;47.990;-1.608;2023-02-24T03:03:11;18.70;49.10
49379;DHT22;35254;47.990;-1.608;2023-02-24T03:05:50;18.70;49.10
49379;DHT22;35254;47.990;-1.608;2023-02-24T03:08:21;18.70;49.00
49379;DHT22;35254;47.990;-1.608;2023-02-24T03:10:48;18.70;49.10
49379;DHT22;35254;47.990;-1.608;2023-02-24T03:13:20;18.80;49.10
49379;DHT22;35254;47.990;-1.608;2023-02-24T03:15:50;18.70;49.00
49379;DHT22;35254;47.990;-1.608;2023-02-24T03:18:24;18.80;49.00
49379;DHT22;35254;47.990;-1.608;2023-02-24T03:20:59;18.70;49.00
49379;DHT22;35254;47.990;-1.608;2023-02-24T03:23:41;18.70;49.10
49379;DHT22;35254;47.990;-1.608;2023-02-24T03:26:32;18.70;49.00
49379;DHT22;35254;47.990;-1.608;2023-02-24T03:35:00;18.70;49.10
49379;DHT22;35254;47.990;-1.608;2023-02-24T03:37:29;18.70;49.10
49379;DHT22;35254;47.990;-1.608;2023-02-24T03:39:57;18.70;49.10
49379;DHT22;35254;47.990;-1.608;2023-02-24T03:42:27;18.70;49.10
49379;DHT22;35254;47.990;-1.608;2023-02-24T03:44:54;18.70;49.10
49379;DHT22;35254;47.990;-1.608;2023-02-24T03:47:23;18.70;49.10
49379;DHT22;35254;47.990;-1.608;2023-02-24T03:49:49;18.70;49.00
49379;DHT22;35254;47.990;-1.608;2023-02-24T03:52:32;18.70;49.00
49379;DHT22;35254;47.990;-1.608;2023-02-24T04:08:53;18.70;49.00
49379;DHT22;35254;47.990;-1.608;2023-02-24T04:11:37;18.70;48.90
49379;DHT22;35254;47.990;-1.608;2023-02-24T04:14:10;18.70;49.00
49379;DHT22;35254;47.990;-1.608;2023-02-24T04:16:38;18.70;49.00
49379;DHT22;35254;47.990;-1.608;2023-02-24T04:19:13;18.70;49.00
49379;DHT22;35254;47.990;-1.608;2023-02-24T04:21:42;18.70;49.10
49379;DHT22;35254;47.990;-1.608;2023-02-24T04:24:10;18.70;49.10
49379;DHT22;35254;47.990;-1.608;2023-02-24T04:26:43;18.70;49.00
49379;DHT22;35254;47.990;-1.608;2023-02-24T04:29:16;18.70;49.00
49379;DHT22;35254;47.990;-1.608;2023-02-24T04:31:53;18.70;48.90
49379;DHT22;35254;47.990;-1.608;2023-02-24T04:34:20;18.70;48.90
49379;DHT22;35254;47.990;-1.608;2023-02-24T04:36:47;18.70;49.00
49379;DHT22;35254;47.990;-1.608;2023-02-24T04:39:18;18.70;49.00
49379;DHT22;35254;47.990;-1.608;2023-02-24T04:41:46;18.70;49.00
49379;DHT22;35254;47.990;-1.608;2023-02-24T04:44:16;18.70;49.00
49379;DHT22;35254;47.990;-1.608;2023-02-24T04:46:45;18.70;49.00
49379;DHT22;35254;47.990;-1.608;2023-02-24T04:49:12;18.70;49.10
49379;DHT22;35254;47.990;-1.608;2023-02-24T04:51:38;18.70;49.00
49379;DHT22;35254;47.990;-1.608;2023-02-24T04:54:11;18.70;49.00
49379;DHT22;35254;47.990;-1.608;2023-02-24T04:56:50;18.70;49.10
49379;DHT22;35254;47.990;-1.608;2023-02-24T04:59:17;18.70;49.10
49379;DHT22;35254;47.990;-1.608;2023-02-24T05:01:44;18.70;49.10
49379;DHT22;35254;47.990;-1.608;2023-02-24T05:04:11;18.70;49.00
49379;DHT22;35254;47.990;-1.608;2023-02-24T05:06:37;18.70;49.10
49379;DHT22;35254;47.990;-1.608;2023-02-24T05:09:09;18.70;49.10
49379;DHT22;35254;47.990;-1.608;2023-02-24T05:11:48;18.70;49.10
49379;DHT22;35254;47.990;-1.608;2023-02-24T05:14:14;18.70;49.10
49379;DHT22;35254;47.990;-1.608;2023-02-24T05:16:45;18.70;49.10
49379;DHT22;35254;47.990;-1.608;2023-02-24T05:19:14;18.70;49.20
49379;DHT22;35254;47.990;-1.608;2023-02-24T05:21:59;18.70;49.30
49379;DHT22;35254;47.990;-1.608;2023-02-24T05:24:27;18.60;49.30
49379;DHT22;35254;47.990;-1.608;2023-02-24T05:26:55;18.70;49.20
49379;DHT22;35254;47.990;-1.608;2023-02-24T05:29:25;18.70;49.30
49379;DHT22;35254;47.990;-1.608;2023-02-24T05:31:52;18.70;49.20
49379;DHT22;35254;47.990;-1.608;2023-02-24T05:34:28;18.70;49.20
49379;DHT22;35254;47.990;-1.608;2023-02-24T05:36:55;18.70;49.10
49379;DHT22;35254;47.990;-1.608;2023-02-24T05:39:21;18.70;49.10
49379;DHT22;35254;47.990;-1.608;2023-02-24T05:41:48;18.70;49.10
49379;DHT22;35254;47.990;-1.608;2023-02-24T05:44:18;18.70;49.20
49379;DHT22;35254;47.990;-1.608;2023-02-24T05:46:49;18.70;49.20
49379;DHT22;35254;47.990;-1.608;2023-02-24T05:49:20;18.70;49.10
49379;DHT22;35254;47.990;-1.608;2023-02-24T05:51:49;18.60;49.10
49379;DHT22;35254;47.990;-1.608;2023-02-24T05:54:27;18.70;49.20
49379;DHT22;35254;47.990;-1.608;2023-02-24T05:57:04;18.70;49.10
49379;DHT22;35254;47.990;-1.608;2023-02-24T05:59:30;18.70;49.10
49379;DHT22;35254;47.990;-1.608;2023-02-24T06:02:02;18.70;49.10
49379;DHT22;35254;47.990;-1.608;2023-02-24T06:04:35;18.70;49.00
49379;DHT22;35254;47.990;-1.608;2023-02-24T06:09:44;18.70;49.10
49379;DHT22;35254;47.990;-1.608;2023-02-24T06:12:10;18.70;49.10
49379;DHT22;35254;47.990;-1.608;2023-02-24T06:14:38;18.70;49.20
49379;DHT22;35254;47.990;-1.608;2023-02-24T06:17:04;18.70;49.10
49379;DHT22;35254;47.990;-1.608;2023-02-24T06:19:30;18.70;49.10
49379;DHT22;35254;47.990;-1.608;2023-02-24T06:21:57;18.70;49.30
49379;DHT22;35254;47.990;-1.608;2023-02-24T06:24:28;18.70;49.20
49379;DHT22;35254;47.990;-1.608;2023-02-24T06:26:55;18.70;49.20
49379;DHT22;35254;47.990;-1.608;2023-02-24T06:29:28;18.70;49.20
49379;DHT22;35254;47.990;-1.608;2023-02-24T06:31:55;18.70;49.20
49379;DHT22;35254;47.990;-1.608;2023-02-24T06:34:22;18.70;49.10
49379;DHT22;35254;47.990;-1.608;2023-02-24T06:36:50;18.70;49.00
49379;DHT22;35254;47.990;-1.608;2023-02-24T06:39:15;18.70;49.00
49379;DHT22;35254;47.990;-1.608;2023-02-24T06:41:41;18.70;48.90
49379;DHT22;35254;47.990;-1.608;2023-02-24T06:44:07;18.70;49.00
49379;DHT22;35254;47.990;-1.608;2023-02-24T06:46:34;18.70;48.90
49379;DHT22;35254;47.990;-1.608;2023-02-24T06:49:00;18.70;48.90
49379;DHT22;35254;47.990;-1.608;2023-02-24T06:51:25;18.70;48.90
49379;DHT22;35254;47.990;-1.608;2023-02-24T06:53:57;18.70;48.80
49379;DHT22;35254;47.990;-1.608;2023-02-24T06:56:24;18.70;48.80
49379;DHT22;35254;47.990;-1.608;2023-02-24T06:58:52;18.70;48.90
49379;DHT22;35254;47.990;-1.608;2023-02-24T07:01:24;18.70;48.90
49379;DHT22;35254;47.990;-1.608;2023-02-24T07:03:59;18.70;48.90
49379;DHT22;35254;47.990;-1.608;2023-02-24T07:06:39;18.70;48.90
49379;DHT22;35254;47.990;-1.608;2023-02-24T07:09:13;18.70;49.00
49379;DHT22;35254;47.990;-1.608;2023-02-24T07:11:41;18.80;49.00
49379;DHT22;35254;47.990;-1.608;2023-02-24T07:14:11;18.80;49.00
49379;DHT22;35254;47.990;-1.608;2023-02-24T07:16:38;18.80;49.00
49379;DHT22;35254;47.990;-1.608;2023-02-24T07:19:10;18.80;49.00
49379;DHT22;35254;47.990;-1.608;2023-02-24T07:21:42;18.80;49.00
49379;DHT22;35254;47.990;-1.608;2023-02-24T07:24:12;18.80;49.00
49379;DHT22;35254;47.990;-1.608;2023-02-24T07:26:40;18.90;49.00
49379;DHT22;35254;47.990;-1.608;2023-02-24T07:29:12;18.90;48.90
49379;DHT22;35254;47.990;-1.608;2023-02-24T07:31:38;18.90;48.90
49379;DHT22;35254;47.990;-1.608;2023-02-24T07:34:04;18.90;48.90
49379;DHT22;35254;47.990;-1.608;2023-02-24T07:36:30;18.90;48.90
49379;DHT22;35254;47.990;-1.608;2023-02-24T07:39:04;18.90;48.80
49379;DHT22;35254;47.990;-1.608;2023-02-24T07:41:32;18.90;48.90
49379;DHT22;35254;47.990;-1.608;2023-02-24T07:43:58;18.90;49.00
49379;DHT22;35254;47.990;-1.608;2023-02-24T07:46:28;19.00;49.00
49379;DHT22;35254;47.990;-1.608;2023-02-24T07:48:55;19.00;49.10
49379;DHT22;35254;47.990;-1.608;2023-02-24T07:51:24;19.00;49.20
49379;DHT22;35254;47.990;-1.608;2023-02-24T07:53:57;19.10;49.20
49379;DHT22;35254;47.990;-1.608;2023-02-24T07:56:28;19.00;49.40
49379;DHT22;35254;47.990;-1.608;2023-02-24T07:59:14;19.10;49.50
49379;DHT22;35254;47.990;-1.608;2023-02-24T08:01:44;19.10;49.40
49379;DHT22;35254;47.990;-1.608;2023-02-24T08:04:15;19.20;49.60
49379;DHT22;35254;47.990;-1.608;2023-02-24T08:06:42;19.10;49.70
49379;DHT22;35254;47.990;-1.608;2023-02-24T08:09:11;19.20;49.70
49379;DHT22;35254;47.990;-1.608;2023-02-24T08:11:54;19.20;49.70
49379;DHT22;35254;47.990;-1.608;2023-02-24T08:14:27;19.20;49.60
49379;DHT22;35254;47.990;-1.608;2023-02-24T08:16:57;19.20;49.50
49379;DHT22;35254;47.990;-1.608;2023-02-24T08:19:26;19.20;49.70
49379;DHT22;35254;47.990;-1.608;2023-02-24T08:21:58;19.20;50.00
49379;DHT22;35254;47.990;-1.608;2023-02-24T08:25:01;19.20;49.90
49379;DHT22;35254;47.990;-1.608;2023-02-24T08:27:32;19.20;50.60
49379;DHT22;35254;47.990;-1.608;2023-02-24T08:29:59;19.20;51.00
49379;DHT22;35254;47.990;-1.608;2023-02-24T08:32:39;19.30;51.50
49379;DHT22;35254;47.990;-1.608;2023-02-24T08:35:28;19.40;52.50
49379;DHT22;35254;47.990;-1.608;2023-02-24T08:38:01;19.40;51.50
49379;DHT22;35254;47.990;-1.608;2023-02-24T08:40:34;19.30;51.60
49379;DHT22;35254;47.990;-1.608;2023-02-24T08:45:49;19.30;51.70
49379;DHT22;35254;47.990;-1.608;2023-02-24T08:48:18;19.40;52.00
49379;DHT22;35254;47.990;-1.608;2023-02-24T08:51:00;19.40;51.60
49379;DHT22;35254;47.990;-1.608;2023-02-24T08:53:28;19.40;51.30
49379;DHT22;35254;47.990;-1.608;2023-02-24T08:55:57;19.40;51.50
49379;DHT22;35254;47.990;-1.608;2023-02-24T08:58:23;19.40;51.60
49379;DHT22;35254;47.990;-1.608;2023-02-24T09:00:53;19.50;51.60
49379;DHT22;35254;47.990;-1.608;2023-02-24T09:03:22;19.50;51.50
49379;DHT22;35254;47.990;-1.608;2023-02-24T09:06:07;19.50;50.70
49379;DHT22;35254;47.990;-1.608;2023-02-24T09:08:38;19.40;50.80
49379;DHT22;35254;47.990;-1.608;2023-02-24T09:11:06;19.40;50.70
49379;DHT22;35254;47.990;-1.608;2023-02-24T09:13:50;19.40;50.70
49379;DHT22;35254;47.990;-1.608;2023-02-24T09:16:20;19.40;50.60
49379;DHT22;35254;47.990;-1.608;2023-02-24T09:18:48;19.40;50.50
49379;DHT22;35254;47.990;-1.608;2023-02-24T09:21:35;19.40;50.50
49379;DHT22;35254;47.990;-1.608;2023-02-24T09:24:14;19.40;50.40
49379;DHT22;35254;47.990;-1.608;2023-02-24T09:26:57;19.40;50.40
49379;DHT22;35254;47.990;-1.608;2023-02-24T09:29:33;19.40;50.30
49379;DHT22;35254;47.990;-1.608;2023-02-24T09:32:04;19.40;50.10
49379;DHT22;35254;47.990;-1.608;2023-02-24T09:34:38;19.50;50.20
49379;DHT22;35254;47.990;-1.608;2023-02-24T09:37:09;19.50;50.10
49379;DHT22;35254;47.990;-1.608;2023-02-24T09:39:50;19.50;50.00
49379;DHT22;35254;47.990;-1.608;2023-02-24T09:42:27;19.50;49.90
49379;DHT22;35254;47.990;-1.608;2023-02-24T09:45:04;19.60;49.70
49379;DHT22;35254;47.990;-1.608;2023-02-24T09:47:43;19.60;49.70
49379;DHT22;35254;47.990;-1.608;2023-02-24T09:52:51;19.70;49.80
49379;DHT22;35254;47.990;-1.608;2023-02-24T09:55:37;19.70;49.60
49379;DHT22;35254;47.990;-1.608;2023-02-24T10:01:07;19.80;49.70
49379;DHT22;35254;47.990;-1.608;2023-02-24T10:06:38;19.80;49.70
49379;DHT22;35254;47.990;-1.608;2023-02-24T10:09:23;19.80;49.90
49379;DHT22;35254;47.990;-1.608;2023-02-24T10:11:54;19.80;50.30
49379;DHT22;35254;47.990;-1.608;2023-02-24T10:17:21;19.90;50.10
49379;DHT22;35254;47.990;-1.608;2023-02-24T10:19:56;19.90;50.10
49379;DHT22;35254;47.990;-1.608;2023-02-24T10:27:40;20.10;50.20
49379;DHT22;35254;47.990;-1.608;2023-02-24T10:30:17;20.10;50.10
49379;DHT22;35254;47.990;-1.608;2023-02-24T10:32:56;20.10;50.20
49379;DHT22;35254;47.990;-1.608;2023-02-24T10:35:27;20.10;50.20
49379;DHT22;35254;47.990;-1.608;2023-02-24T10:37:58;20.10;50.30
49379;DHT22;35254;47.990;-1.608;2023-02-24T10:40:30;20.20;50.40
49379;DHT22;35254;47.990;-1.608;2023-02-24T10:43:17;20.20;50.20
49379;DHT22;35254;47.990;-1.608;2023-02-24T10:45:44;20.20;50.50
49379;DHT22;35254;47.990;-1.608;2023-02-24T10:48:21;20.20;50.50
49379;DHT22;35254;47.990;-1.608;2023-02-24T10:50:52;20.20;50.50
49379;DHT22;35254;47.990;-1.608;2023-02-24T10:53:24;20.20;50.50
49379;DHT22;35254;47.990;-1.608;2023-02-24T10:56:12;20.10;50.70
49379;DHT22;35254;47.990;-1.608;2023-02-24T10:59:23;20.10;50.70
49379;DHT22;35254;47.990;-1.608;2023-02-24T11:01:54;20.10;51.00
49379;DHT22;35254;47.990;-1.608;2023-02-24T11:04:33;20.10;50.90
49379;DHT22;35254;47.990;-1.608;2023-02-24T11:07:20;20.10;50.90
49379;DHT22;35254;47.990;-1.608;2023-02-24T11:10:14;20.10;51.10
49379;DHT22;35254;47.990;-1.608;2023-02-24T11:12:51;20.20;50.90
49379;DHT22;35254;47.990;-1.608;2023-02-24T11:15:46;20.10;50.50
49379;DHT22;35254;47.990;-1.608;2023-02-24T11:18:32;20.10;50.70
49379;DHT22;35254;47.990;-1.608;2023-02-24T11:21:07;20.10;50.60
49379;DHT22;35254;47.990;-1.608;2023-02-24T11:23:37;20.10;50.50
49379;DHT22;35254;47.990;-1.608;2023-02-24T11:26:23;20.10;50.40
49379;DHT22;35254;47.990;-1.608;2023-02-24T11:37:38;20.10;50.10
49379;DHT22;35254;47.990;-1.608;2023-02-24T11:40:18;20.10;50.30
49379;DHT22;35254;47.990;-1.608;2023-02-24T11:43:02;20.10;50.40
49379;DHT22;35254;47.990;-1.608;2023-02-24T11:45:38;20.10;50.20
49379;DHT22;35254;47.990;-1.608;2023-02-24T12:01:41;20.10;49.90
49379;DHT22;35254;47.990;-1.608;2023-02-24T12:09:36;20.10;49.80
49379;DHT22;35254;47.990;-1.608;2023-02-24T12:14:50;20.10;51.20
49379;DHT22;35254;47.990;-1.608;2023-02-24T12:17:43;20.20;52.50
49379;DHT22;35254;47.990;-1.608;2023-02-24T12:20:33;20.20;54.30
49379;DHT22;35254;47.990;-1.608;2023-02-24T12:23:15;20.20;56.20
49379;DHT22;35254;47.990;-1.608;2023-02-24T12:31:33;20.20;54.70
49379;DHT22;35254;47.990;-1.608;2023-02-24T12:34:17;20.20;53.90
49379;DHT22;35254;47.990;-1.608;2023-02-24T12:42:45;20.20;52.60
49379;DHT22;35254;47.990;-1.608;2023-02-24T12:45:17;20.20;52.30
49379;DHT22;35254;47.990;-1.608;2023-02-24T12:56:23;20.20;52.50
49379;DHT22;35254;47.990;-1.608;2023-02-24T12:58:58;20.30;52.40
49379;DHT22;35254;47.990;-1.608;2023-02-24T13:01:35;20.20;52.50
49379;DHT22;35254;47.990;-1.608;2023-02-24T13:13:26;20.30;51.70
49379;DHT22;35254;47.990;-1.608;2023-02-24T13:15:55;20.30;51.60
49379;DHT22;35254;47.990;-1.608;2023-02-24T13:18:27;20.20;51.50
49379;DHT22;35254;47.990;-1.608;2023-02-24T13:21:16;20.20;51.50
49379;DHT22;35254;47.990;-1.608;2023-02-24T13:23:59;20.30;51.30
49379;DHT22;35254;47.990;-1.608;2023-02-24T13:26:28;20.30;51.10
49379;DHT22;35254;47.990;-1.608;2023-02-24T13:29:13;20.30;51.10
49379;DHT22;35254;47.990;-1.608;2023-02-24T13:31:50;20.30;51.00
49379;DHT22;35254;47.990;-1.608;2023-02-24T13:34:32;20.30;50.80
49379;DHT22;35254;47.990;-1.608;2023-02-24T13:37:07;20.30;50.30
49379;DHT22;35254;47.990;-1.608;2023-02-24T13:39:36;20.30;50.40
49379;DHT22;35254;47.990;-1.608;2023-02-24T13:44:47;20.30;50.30
49379;DHT22;35254;47.990;-1.608;2023-02-24T13:47:32;20.40;50.30
49379;DHT22;35254;47.990;-1.608;2023-02-24T13:59:09;20.40;50.10
49379;DHT22;35254;47.990;-1.608;2023-02-24T14:01:16;20.30;50.00
49379;DHT22;35254;47.990;-1.608;2023-02-24T14:04:01;20.40;50.00
49379;DHT22;35254;47.990;-1.608;2023-02-24T14:06:28;20.40;50.00
49379;DHT22;35254;47.990;-1.608;2023-02-24T14:08:59;20.30;49.90
49379;DHT22;35254;47.990;-1.608;2023-02-24T14:11:28;20.40;49.90
49379;DHT22;35254;47.990;-1.608;2023-02-24T14:13:56;20.40;49.90
49379;DHT22;35254;47.990;-1.608;2023-02-24T14:16:34;20.40;49.70
49379;DHT22;35254;47.990;-1.608;2023-02-24T14:19:10;20.40;49.70
49379;DHT22;35254;47.990;-1.608;2023-02-24T14:21:36;20.40;49.60
49379;DHT22;35254;47.990;-1.608;2023-02-24T14:24:10;20.40;49.60
49379;DHT22;35254;47.990;-1.608;2023-02-24T14:26:54;20.40;49.50
49379;DHT22;35254;47.990;-1.608;2023-02-24T14:29:26;20.40;49.50
49379;DHT22;35254;47.990;-1.608;2023-02-24T14:31:54;20.30;49.20
49379;DHT22;35254;47.990;-1.608;2023-02-24T14:34:23;20.30;49.30
49379;DHT22;35254;47.990;-1.608;2023-02-24T14:36:54;20.30;49.20
49379;DHT22;35254;47.990;-1.608;2023-02-24T14:39:28;20.20;48.90
49379;DHT22;35254;47.990;-1.608;2023-02-24T14:42:11;20.30;48.80
49379;DHT22;35254;47.990;-1.608;2023-02-24T14:44:43;20.30;48.70
49379;DHT22;35254;47.990;-1.608;2023-02-24T14:47:11;20.20;48.60
49379;DHT22;35254;47.990;-1.608;2023-02-24T14:49:39;20.30;48.10
49379;DHT22;35254;47.990;-1.608;2023-02-24T14:57:20;20.20;48.10
49379;DHT22;35254;47.990;-1.608;2023-02-24T14:59:51;20.20;47.90
49379;DHT22;35254;47.990;-1.608;2023-02-24T15:02:23;20.30;47.80
49379;DHT22;35254;47.990;-1.608;2023-02-24T15:04:52;20.20;47.90
49379;DHT22;35254;47.990;-1.608;2023-02-24T15:07:22;20.20;47.80
49379;DHT22;35254;47.990;-1.608;2023-02-24T15:09:49;20.20;45.90
49379;DHT22;35254;47.990;-1.608;2023-02-24T15:12:31;20.20;47.20
49379;DHT22;35254;47.990;-1.608;2023-02-24T15:15:16;20.20;46.90
49379;DHT22;35254;47.990;-1.608;2023-02-24T15:17:43;20.20;47.10
49379;DHT22;35254;47.990;-1.608;2023-02-24T15:22:50;20.20;46.80
49379;DHT22;35254;47.990;-1.608;2023-02-24T15:25:22;20.20;47.80
49379;DHT22;35254;47.990;-1.608;2023-02-24T15:30:26;20.10;48.00
49379;DHT22;35254;47.990;-1.608;2023-02-24T15:33:05;20.10;48.10
49379;DHT22;35254;47.990;-1.608;2023-02-24T15:35:33;20.10;47.30
49379;DHT22;35254;47.990;-1.608;2023-02-24T15:38:00;20.10;47.60
49379;DHT22;35254;47.990;-1.608;2023-02-24T15:40:27;20.10;47.50
49379;DHT22;35254;47.990;-1.608;2023-02-24T15:42:56;20.10;47.40
49379;DHT22;35254;47.990;-1.608;2023-02-24T15:45:27;20.10;47.50
49379;DHT22;35254;47.990;-1.608;2023-02-24T15:47:56;20.10;47.40
49379;DHT22;35254;47.990;-1.608;2023-02-24T15:50:22;20.10;47.20
49379;DHT22;35254;47.990;-1.608;2023-02-24T15:52:48;20.10;47.10
49379;DHT22;35254;47.990;-1.608;2023-02-24T15:55:18;20.10;47.10
49379;DHT22;35254;47.990;-1.608;2023-02-24T15:57:45;20.10;47.40
49379;DHT22;35254;47.990;-1.608;2023-02-24T16:00:14;20.10;47.20
49379;DHT22;35254;47.990;-1.608;2023-02-24T16:02:42;20.10;47.50
49379;DHT22;35254;47.990;-1.608;2023-02-24T16:05:14;20.10;47.70
49379;DHT22;35254;47.990;-1.608;2023-02-24T16:07:42;20.10;47.80
49379;DHT22;35254;47.990;-1.608;2023-02-24T16:10:22;20.10;47.80
49379;DHT22;35254;47.990;-1.608;2023-02-24T16:12:59;20.10;47.70
49379;DHT22;35254;47.990;-1.608;2023-02-24T16:15:29;20.10;47.80
49379;DHT22;35254;47.990;-1.608;2023-02-24T16:17:55;20.10;47.80
49379;DHT22;35254;47.990;-1.608;2023-02-24T16:20:27;20.10;47.80
49379;DHT22;35254;47.990;-1.608;2023-02-24T16:22:57;20.10;48.60
49379;DHT22;35254;47.990;-1.608;2023-02-24T16:25:24;20.10;48.00
49379;DHT22;35254;47.990;-1.608;2023-02-24T16:27:50;20.10;47.70
49379;DHT22;35254;47.990;-1.608;2023-02-24T16:30:22;20.10;47.80
49379;DHT22;35254;47.990;-1.608;2023-02-24T16:32:48;20.10;47.80
49379;DHT22;35254;47.990;-1.608;2023-02-24T16:35:14;20.10;47.80
49379;DHT22;35254;47.990;-1.608;2023-02-24T16:37:39;20.10;47.80
49379;DHT22;35254;47.990;-1.608;2023-02-24T16:40:23;20.10;47.90
49379;DHT22;35254;47.990;-1.608;2023-02-24T16:42:50;20.10;48.00
49379;DHT22;35254;47.990;-1.608;2023-02-24T16:45:18;20.10;47.80
49379;DHT22;35254;47.990;-1.608;2023-02-24T16:47:46;20.10;47.70
49379;DHT22;35254;47.990;-1.608;2023-02-24T16:50:26;20.10;47.90
49379;DHT22;35254;47.990;-1.608;2023-02-24T16:52:54;20.10;47.80
49379;DHT22;35254;47.990;-1.608;2023-02-24T16:55:20;20.10;47.70
49379;DHT22;35254;47.990;-1.608;2023-02-24T16:57:46;20.10;46.10
49379;DHT22;35254;47.990;-1.608;2023-02-24T17:00:13;20.00;46.60
49379;DHT22;35254;47.990;-1.608;2023-02-24T17:02:41;20.10;46.90
49379;DHT22;35254;47.990;-1.608;2023-02-24T17:05:22;20.00;48.00
49379;DHT22;35254;47.990;-1.608;2023-02-24T17:07:48;20.00;47.70
49379;DHT22;35254;47.990;-1.608;2023-02-24T17:10:16;20.00;47.70
49379;DHT22;35254;47.990;-1.608;2023-02-24T17:12:42;20.00;47.60
49379;DHT22;35254;47.990;-1.608;2023-02-24T17:15:14;20.00;47.70
49379;DHT22;35254;47.990;-1.608;2023-02-24T17:17:40;20.00;46.20
49379;DHT22;35254;47.990;-1.608;2023-02-24T17:20:07;20.00;46.60
49379;DHT22;35254;47.990;-1.608;2023-02-24T17:22:32;20.00;46.80
49379;DHT22;35254;47.990;-1.608;2023-02-24T17:24:58;20.00;47.10
49379;DHT22;35254;47.990;-1.608;2023-02-24T17:27:24;20.00;46.30
49379;DHT22;35254;47.990;-1.608;2023-02-24T17:29:49;19.90;44.60
49379;DHT22;35254;47.990;-1.608;2023-02-24T17:32:15;19.90;43.60
49379;DHT22;35254;47.990;-1.608;2023-02-24T17:34:41;19.90;44.10
49379;DHT22;35254;47.990;-1.608;2023-02-24T17:37:06;19.90;44.40
49379;DHT22;35254;47.990;-1.608;2023-02-24T17:39:32;19.90;44.60
49379;DHT22;35254;47.990;-1.608;2023-02-24T17:41:58;19.90;44.00
49379;DHT22;35254;47.990;-1.608;2023-02-24T17:44:24;19.90;44.00
49379;DHT22;35254;47.990;-1.608;2023-02-24T17:46:49;19.90;44.20
49379;DHT22;35254;47.990;-1.608;2023-02-24T17:49:16;19.90;44.30
49379;DHT22;35254;47.990;-1.608;2023-02-24T17:51:42;19.90;44.50
49379;DHT22;35254;47.990;-1.608;2023-02-24T17:54:07;19.90;44.70
49379;DHT22;35254;47.990;-1.608;2023-02-24T17:56:36;19.90;45.20
49379;DHT22;35254;47.990;-1.608;2023-02-24T17:59:01;19.90;45.10
49379;DHT22;35254;47.990;-1.608;2023-02-24T18:01:27;19.90;45.10
49379;DHT22;35254;47.990;-1.608;2023-02-24T18:03:54;19.90;45.40
49379;DHT22;35254;47.990;-1.608;2023-02-24T18:06:23;19.90;45.50
49379;DHT22;35254;47.990;-1.608;2023-02-24T18:08:49;19.90;45.70
49379;DHT22;35254;47.990;-1.608;2023-02-24T18:11:17;19.90;45.70